sensor_id;sensor_type;location;lat;lon;timestamp;temperature;humidity
31133;DHT22;17779;50.942;4.026;2022-11-03T00:01:34;12.80;99.90
31133;DHT22;17779;50.942;4.026;2022-11-03T00:04:02;12.80;99.90
31133;DHT22;17779;50.942;4.026;2022-11-03T00:06:28;12.80;99.90
31133;DHT22;17779;50.942;4.026;2022-11-03T00:08:56;12.80;99.90
31133;DHT22;17779;50.942;4.026;2022-11-03T00:11:22;12.80;99.90
31133;DHT22;17779;50.942;4.026;2022-11-03T00:13:48;12.80;99.90
31133;DHT22;17779;50.942;4.026;2022-11-03T00:16:14;12.90;99.90
31133;DHT22;17779;50.942;4.026;2022-11-03T00:18:39;12.80;99.90
31133;DHT22;17779;50.942;4.026;2022-11-03T00:21:08;12.80;99.90
31133;DHT22;17779;50.942;4.026;2022-11-03T00:23:35;12.80;99.90
31133;DHT22;17779;50.942;4.026;2022-11-03T00:26:23;12.80;99.90
31133;DHT22;17779;50.942;4.026;2022-11-03T00:28:48;12.80;99.90
31133;DHT22;17779;50.942;4.026;2022-11-03T00:31:15;12.90;99.90
31133;DHT22;17779;50.942;4.026;2022-11-03T00:33:41;12.90;99.90
31133;DHT22;17779;50.942;4.026;2022-11-03T00:36:08;12.70;99.90
31133;DHT22;17779;50.942;4.026;2022-11-03T00:38:34;12.80;99.90
31133;DHT22;17779;50.942;4.026;2022-11-03T00:41:02;12.90;99.90
31133;DHT22;17779;50.942;4.026;2022-11-03T00:43:30;12.80;99.90
31133;DHT22;17779;50.942;4.026;2022-11-03T00:45:56;12.70;99.90
31133;DHT22;17779;50.942;4.026;2022-11-03T00:48:22;12.70;99.90
31133;DHT22;17779;50.942;4.026;2022-11-03T00:50:56;12.70;99.90
31133;DHT22;17779;50.942;4.026;2022-11-03T00:53:24;12.70;99.90
31133;DHT22;17779;50.942;4.026;2022-11-03T00:55:49;12.70;99.90
31133;DHT22;17779;50.942;4.026;2022-11-03T00:58:15;12.70;99.90
31133;DHT22;17779;50.942;4.026;2022-11-03T01:00:41;12.60;99.90
31133;DHT22;17779;50.942;4.026;2022-11-03T01:03:07;12.70;99.90
31133;DHT22;17779;50.942;4.026;2022-11-03T01:05:32;12.60;99.90
31133;DHT22;17779;50.942;4.026;2022-11-03T01:08:16;12.70;99.90
31133;DHT22;17779;50.942;4.026;2022-11-03T01:10:42;12.70;99.90
31133;DHT22;17779;50.942;4.026;2022-11-03T01:13:26;12.70;99.90
31133;DHT22;17779;50.942;4.026;2022-11-03T01:15:55;12.70;99.90
31133;DHT22;17779;50.942;4.026;2022-11-03T01:18:22;12.80;99.90
31133;DHT22;17779;50.942;4.026;2022-11-03T01:20:52;12.80;99.90
31133;DHT22;17779;50.942;4.026;2022-11-03T01:23:18;12.80;99.90
31133;DHT22;17779;50.942;4.026;2022-11-03T01:25:44;12.90;99.90
31133;DHT22;17779;50.942;4.026;2022-11-03T01:28:09;13.00;99.90
31133;DHT22;17779;50.942;4.026;2022-11-03T01:30:35;13.10;99.90
31133;DHT22;17779;50.942;4.026;2022-11-03T01:33:01;13.00;99.90
31133;DHT22;17779;50.942;4.026;2022-11-03T01:35:27;13.10;99.90
31133;DHT22;17779;50.942;4.026;2022-11-03T01:37:53;13.10;99.90
31133;DHT22;17779;50.942;4.026;2022-11-03T01:40:18;13.20;99.90
31133;DHT22;17779;50.942;4.026;2022-11-03T01:42:45;13.20;99.90
31133;DHT22;17779;50.942;4.026;2022-11-03T01:45:10;13.30;99.90
31133;DHT22;17779;50.942;4.026;2022-11-03T01:47:36;13.30;99.90
31133;DHT22;17779;50.942;4.026;2022-11-03T01:50:06;13.30;99.90
31133;DHT22;17779;50.942;4.026;2022-11-03T01:52:47;13.30;99.90
31133;DHT22;17779;50.942;4.026;2022-11-03T01:55:16;13.30;99.90
31133;DHT22;17779;50.942;4.026;2022-11-03T01:57:45;13.30;99.90
31133;DHT22;17779;50.942;4.026;2022-11-03T02:00:14;13.30;99.90
31133;DHT22;17779;50.942;4.026;2022-11-03T02:02:40;13.30;99.90
31133;DHT22;17779;50.942;4.026;2022-11-03T02:05:07;13.20;99.90
31133;DHT22;17779;50.942;4.026;2022-11-03T02:07:42;13.20;99.90
31133;DHT22;17779;50.942;4.026;2022-11-03T02:10:08;13.20;99.90
31133;DHT22;17779;50.942;4.026;2022-11-03T02:12:34;13.20;99.90
31133;DHT22;17779;50.942;4.026;2022-11-03T02:15:02;13.20;99.90
31133;DHT22;17779;50.942;4.026;2022-11-03T02:17:29;13.20;99.90
31133;DHT22;17779;50.942;4.026;2022-11-03T02:20:10;13.20;99.90
31133;DHT22;17779;50.942;4.026;2022-11-03T02:25:10;13.10;99.90
31133;DHT22;17779;50.942;4.026;2022-11-03T02:27:38;13.10;99.90
31133;DHT22;17779;50.942;4.026;2022-11-03T02:30:05;13.10;99.90
31133;DHT22;17779;50.942;4.026;2022-11-03T02:33:14;13.10;99.90
31133;DHT22;17779;50.942;4.026;2022-11-03T02:35:37;13.10;99.90
31133;DHT22;17779;50.942;4.026;2022-11-03T02:38:04;13.00;99.90
31133;DHT22;17779;50.942;4.026;2022-11-03T02:40:35;13.00;99.90
31133;DHT22;17779;50.942;4.026;2022-11-03T02:43:01;13.00;99.90
31133;DHT22;17779;50.942;4.026;2022-11-03T02:45:29;13.00;99.90
31133;DHT22;17779;50.942;4.026;2022-11-03T02:47:57;13.00;99.90
31133;DHT22;17779;50.942;4.026;2022-11-03T02:50:27;13.00;99.90
31133;DHT22;17779;50.942;4.026;2022-11-03T02:52:52;13.00;99.90
31133;DHT22;17779;50.942;4.026;2022-11-03T03:03:14;12.90;99.90
31133;DHT22;17779;50.942;4.026;2022-11-03T03:05:42;12.80;99.90
31133;DHT22;17779;50.942;4.026;2022-11-03T03:08:09;12.80;99.90
31133;DHT22;17779;50.942;4.026;2022-11-03T03:10:43;12.90;99.90
31133;DHT22;17779;50.942;4.026;2022-11-03T03:13:10;12.90;99.90
31133;DHT22;17779;50.942;4.026;2022-11-03T03:18:44;12.80;99.90
31133;DHT22;17779;50.942;4.026;2022-11-03T03:21:14;12.80;99.90
31133;DHT22;17779;50.942;4.026;2022-11-03T03:23:46;12.80;99.90
31133;DHT22;17779;50.942;4.026;2022-11-03T03:26:19;12.80;99.90
31133;DHT22;17779;50.942;4.026;2022-11-03T03:28:47;12.80;99.90
31133;DHT22;17779;50.942;4.026;2022-11-03T03:31:14;12.80;99.90
31133;DHT22;17779;50.942;4.026;2022-11-03T03:33:41;12.80;99.90
31133;DHT22;17779;50.942;4.026;2022-11-03T03:36:09;12.80;99.90
31133;DHT22;17779;50.942;4.026;2022-11-03T03:38:42;12.80;99.90
31133;DHT22;17779;50.942;4.026;2022-11-03T03:41:09;12.80;99.90
31133;DHT22;17779;50.942;4.026;2022-11-03T03:43:38;12.90;99.90
31133;DHT22;17779;50.942;4.026;2022-11-03T03:46:09;12.80;99.90
31133;DHT22;17779;50.942;4.026;2022-11-03T03:48:36;12.80;99.90
31133;DHT22;17779;50.942;4.026;2022-11-03T03:51:01;12.70;99.90
31133;DHT22;17779;50.942;4.026;2022-11-03T03:53:28;12.80;99.90
31133;DHT22;17779;50.942;4.026;2022-11-03T03:55:55;12.80;99.90
31133;DHT22;17779;50.942;4.026;2022-11-03T03:58:22;12.80;99.90
31133;DHT22;17779;50.942;4.026;2022-11-03T04:00:47;12.80;99.90
31133;DHT22;17779;50.942;4.026;2022-11-03T04:03:17;12.80;99.90
31133;DHT22;17779;50.942;4.026;2022-11-03T04:05:44;12.80;99.90
31133;DHT22;17779;50.942;4.026;2022-11-03T04:08:11;12.90;99.90
31133;DHT22;17779;50.942;4.026;2022-11-03T04:10:36;12.80;99.90
31133;DHT22;17779;50.942;4.026;2022-11-03T04:13:02;12.80;99.90
31133;DHT22;17779;50.942;4.026;2022-11-03T04:15:46;12.80;99.90
31133;DHT22;17779;50.942;4.026;2022-11-03T04:18:31;12.80;99.90
31133;DHT22;17779;50.942;4.026;2022-11-03T04:21:15;12.80;99.90
31133;DHT22;17779;50.942;4.026;2022-11-03T04:23:59;12.80;99.90
31133;DHT22;17779;50.942;4.026;2022-11-03T04:26:25;12.80;99.90
31133;DHT22;17779;50.942;4.026;2022-11-03T04:28:52;12.80;99.90
31133;DHT22;17779;50.942;4.026;2022-11-03T04:31:19;12.90;99.90
31133;DHT22;17779;50.942;4.026;2022-11-03T04:33:45;12.90;99.90
31133;DHT22;17779;50.942;4.026;2022-11-03T04:36:18;13.00;99.90
31133;DHT22;17779;50.942;4.026;2022-11-03T04:38:44;13.00;99.90
31133;DHT22;17779;50.942;4.026;2022-11-03T04:41:20;12.90;99.90
31133;DHT22;17779;50.942;4.026;2022-11-03T04:43:46;13.00;99.90
31133;DHT22;17779;50.942;4.026;2022-11-03T04:46:15;13.10;99.90
31133;DHT22;17779;50.942;4.026;2022-11-03T04:48:42;13.00;99.90
31133;DHT22;17779;50.942;4.026;2022-11-03T04:51:15;13.10;99.90
31133;DHT22;17779;50.942;4.026;2022-11-03T04:53:44;13.00;99.90
31133;DHT22;17779;50.942;4.026;2022-11-03T04:56:15;13.00;99.90
31133;DHT22;17779;50.942;4.026;2022-11-03T04:58:41;13.00;99.90
31133;DHT22;17779;50.942;4.026;2022-11-03T05:01:09;13.00;99.90
31133;DHT22;17779;50.942;4.026;2022-11-03T05:03:37;13.10;99.90
31133;DHT22;17779;50.942;4.026;2022-11-03T05:06:11;13.10;99.90
31133;DHT22;17779;50.942;4.026;2022-11-03T05:08:37;13.10;99.90
31133;DHT22;17779;50.942;4.026;2022-11-03T05:11:19;13.10;99.90
31133;DHT22;17779;50.942;4.026;2022-11-03T05:13:45;13.10;99.90
31133;DHT22;17779;50.942;4.026;2022-11-03T05:16:11;13.10;99.90
31133;DHT22;17779;50.942;4.026;2022-11-03T05:18:38;13.10;99.90
31133;DHT22;17779;50.942;4.026;2022-11-03T05:21:08;13.10;99.90
31133;DHT22;17779;50.942;4.026;2022-11-03T05:23:38;13.10;99.90
31133;DHT22;17779;50.942;4.026;2022-11-03T05:26:05;13.20;99.90
31133;DHT22;17779;50.942;4.026;2022-11-03T05:28:35;13.20;99.90
31133;DHT22;17779;50.942;4.026;2022-11-03T05:31:13;13.20;99.90
31133;DHT22;17779;50.942;4.026;2022-11-03T05:33:39;13.20;99.90
31133;DHT22;17779;50.942;4.026;2022-11-03T05:36:15;13.20;99.90
31133;DHT22;17779;50.942;4.026;2022-11-03T05:38:43;13.10;99.90
31133;DHT22;17779;50.942;4.026;2022-11-03T05:41:13;13.20;99.90
31133;DHT22;17779;50.942;4.026;2022-11-03T05:43:41;13.20;99.90
31133;DHT22;17779;50.942;4.026;2022-11-03T05:46:07;13.20;99.90
31133;DHT22;17779;50.942;4.026;2022-11-03T05:48:36;13.10;99.90
31133;DHT22;17779;50.942;4.026;2022-11-03T05:51:12;13.20;99.90
31133;DHT22;17779;50.942;4.026;2022-11-03T05:53:40;13.20;99.90
31133;DHT22;17779;50.942;4.026;2022-11-03T05:56:09;13.20;99.90
31133;DHT22;17779;50.942;4.026;2022-11-03T05:58:36;13.20;99.90
31133;DHT22;17779;50.942;4.026;2022-11-03T06:01:03;13.20;99.90
31133;DHT22;17779;50.942;4.026;2022-11-03T06:03:32;13.20;99.90
31133;DHT22;17779;50.942;4.026;2022-11-03T06:05:59;13.20;99.90
31133;DHT22;17779;50.942;4.026;2022-11-03T06:08:33;13.20;99.90
31133;DHT22;17779;50.942;4.026;2022-11-03T06:10:59;13.20;99.90
31133;DHT22;17779;50.942;4.026;2022-11-03T06:13:29;13.20;99.90
31133;DHT22;17779;50.942;4.026;2022-11-03T06:16:00;13.20;99.90
31133;DHT22;17779;50.942;4.026;2022-11-03T06:18:29;13.10;99.90
31133;DHT22;17779;50.942;4.026;2022-11-03T06:23:31;13.10;99.90
31133;DHT22;17779;50.942;4.026;2022-11-03T06:25:57;13.20;99.90
31133;DHT22;17779;50.942;4.026;2022-11-03T06:28:28;13.20;99.90
31133;DHT22;17779;50.942;4.026;2022-11-03T06:30:54;13.20;99.90
31133;DHT22;17779;50.942;4.026;2022-11-03T06:33:27;13.10;99.90
31133;DHT22;17779;50.942;4.026;2022-11-03T06:38:53;13.10;99.90
31133;DHT22;17779;50.942;4.026;2022-11-03T06:41:22;13.20;99.90
31133;DHT22;17779;50.942;4.026;2022-11-03T06:43:49;13.20;99.90
31133;DHT22;17779;50.942;4.026;2022-11-03T06:46:21;13.20;99.90
31133;DHT22;17779;50.942;4.026;2022-11-03T06:48:48;13.10;99.90
31133;DHT22;17779;50.942;4.026;2022-11-03T06:51:18;13.20;99.90
31133;DHT22;17779;50.942;4.026;2022-11-03T06:53:45;13.20;99.90
31133;DHT22;17779;50.942;4.026;2022-11-03T06:56:11;13.10;99.90
31133;DHT22;17779;50.942;4.026;2022-11-03T06:58:37;13.20;99.90
31133;DHT22;17779;50.942;4.026;2022-11-03T07:01:09;13.20;99.90
31133;DHT22;17779;50.942;4.026;2022-11-03T07:03:37;13.20;99.90
31133;DHT22;17779;50.942;4.026;2022-11-03T07:08:35;13.30;99.90
31133;DHT22;17779;50.942;4.026;2022-11-03T07:13:37;13.20;99.90
31133;DHT22;17779;50.942;4.026;2022-11-03T07:16:02;13.10;99.90
31133;DHT22;17779;50.942;4.026;2022-11-03T07:18:30;13.20;99.90
31133;DHT22;17779;50.942;4.026;2022-11-03T07:21:05;13.20;99.90
31133;DHT22;17779;50.942;4.026;2022-11-03T07:23:31;13.20;99.90
31133;DHT22;17779;50.942;4.026;2022-11-03T07:25:57;13.20;99.90
31133;DHT22;17779;50.942;4.026;2022-11-03T07:28:24;13.20;99.90
31133;DHT22;17779;50.942;4.026;2022-11-03T07:30:51;13.30;99.90
31133;DHT22;17779;50.942;4.026;2022-11-03T07:33:18;13.30;99.90
31133;DHT22;17779;50.942;4.026;2022-11-03T07:35:44;13.30;99.90
31133;DHT22;17779;50.942;4.026;2022-11-03T07:38:19;13.30;99.90
31133;DHT22;17779;50.942;4.026;2022-11-03T07:40:45;13.30;99.90
31133;DHT22;17779;50.942;4.026;2022-11-03T07:45:37;13.40;99.90
31133;DHT22;17779;50.942;4.026;2022-11-03T07:50:37;13.50;99.90
31133;DHT22;17779;50.942;4.026;2022-11-03T07:53:05;13.50;99.90
31133;DHT22;17779;50.942;4.026;2022-11-03T07:55:33;13.50;99.90
31133;DHT22;17779;50.942;4.026;2022-11-03T07:58:00;13.50;99.90
31133;DHT22;17779;50.942;4.026;2022-11-03T08:00:25;13.50;99.90
31133;DHT22;17779;50.942;4.026;2022-11-03T08:02:53;13.60;99.90
31133;DHT22;17779;50.942;4.026;2022-11-03T08:05:20;13.50;99.90
31133;DHT22;17779;50.942;4.026;2022-11-03T08:07:46;13.60;99.90
31133;DHT22;17779;50.942;4.026;2022-11-03T08:10:12;13.60;99.90
31133;DHT22;17779;50.942;4.026;2022-11-03T08:12:38;13.60;99.90
31133;DHT22;17779;50.942;4.026;2022-11-03T08:15:04;13.50;99.90
31133;DHT22;17779;50.942;4.026;2022-11-03T08:17:29;13.50;99.90
31133;DHT22;17779;50.942;4.026;2022-11-03T08:19:55;13.50;99.90
31133;DHT22;17779;50.942;4.026;2022-11-03T08:22:21;13.40;99.90
31133;DHT22;17779;50.942;4.026;2022-11-03T08:24:51;13.40;99.90
31133;DHT22;17779;50.942;4.026;2022-11-03T08:27:17;13.40;99.90
31133;DHT22;17779;50.942;4.026;2022-11-03T08:29:43;13.40;99.90
31133;DHT22;17779;50.942;4.026;2022-11-03T08:32:09;13.40;99.90
31133;DHT22;17779;50.942;4.026;2022-11-03T08:34:35;13.50;99.90
31133;DHT22;17779;50.942;4.026;2022-11-03T08:37:00;13.50;99.90
31133;DHT22;17779;50.942;4.026;2022-11-03T08:39:27;13.50;99.90
31133;DHT22;17779;50.942;4.026;2022-11-03T08:41:55;13.40;99.90
31133;DHT22;17779;50.942;4.026;2022-11-03T08:44:21;13.40;99.90
31133;DHT22;17779;50.942;4.026;2022-11-03T08:46:47;13.40;99.90
31133;DHT22;17779;50.942;4.026;2022-11-03T08:49:16;13.30;99.90
31133;DHT22;17779;50.942;4.026;2022-11-03T08:51:42;13.40;99.90
31133;DHT22;17779;50.942;4.026;2022-11-03T08:54:07;13.40;99.90
31133;DHT22;17779;50.942;4.026;2022-11-03T08:56:34;13.40;99.90
31133;DHT22;17779;50.942;4.026;2022-11-03T08:58:59;13.50;99.90
31133;DHT22;17779;50.942;4.026;2022-11-03T09:01:25;13.50;99.90
31133;DHT22;17779;50.942;4.026;2022-11-03T09:03:50;13.40;99.90
31133;DHT22;17779;50.942;4.026;2022-11-03T09:06:16;13.40;99.90
31133;DHT22;17779;50.942;4.026;2022-11-03T09:08:43;13.40;99.90
31133;DHT22;17779;50.942;4.026;2022-11-03T09:11:09;13.60;99.90
31133;DHT22;17779;50.942;4.026;2022-11-03T09:13:34;13.60;99.90
31133;DHT22;17779;50.942;4.026;2022-11-03T09:16:00;13.60;99.90
31133;DHT22;17779;50.942;4.026;2022-11-03T09:18:26;13.80;99.90
31133;DHT22;17779;50.942;4.026;2022-11-03T09:20:53;13.80;99.90
31133;DHT22;17779;50.942;4.026;2022-11-03T09:23:20;13.90;99.90
31133;DHT22;17779;50.942;4.026;2022-11-03T09:28:16;13.90;99.90
31133;DHT22;17779;50.942;4.026;2022-11-03T09:30:42;14.00;99.90
31133;DHT22;17779;50.942;4.026;2022-11-03T09:33:07;14.30;99.90
31133;DHT22;17779;50.942;4.026;2022-11-03T09:35:33;14.30;99.90
31133;DHT22;17779;50.942;4.026;2022-11-03T09:38:00;14.50;99.90
31133;DHT22;17779;50.942;4.026;2022-11-03T09:40:25;14.70;99.90
31133;DHT22;17779;50.942;4.026;2022-11-03T09:42:51;14.80;99.90
31133;DHT22;17779;50.942;4.026;2022-11-03T09:45:18;15.00;99.90
31133;DHT22;17779;50.942;4.026;2022-11-03T09:47:44;14.70;99.90
31133;DHT22;17779;50.942;4.026;2022-11-03T09:50:14;14.60;99.90
31133;DHT22;17779;50.942;4.026;2022-11-03T09:52:40;14.50;99.90
31133;DHT22;17779;50.942;4.026;2022-11-03T09:55:14;14.60;99.90
31133;DHT22;17779;50.942;4.026;2022-11-03T09:57:41;14.70;99.90
31133;DHT22;17779;50.942;4.026;2022-11-03T10:00:28;14.60;99.90
31133;DHT22;17779;50.942;4.026;2022-11-03T10:02:53;14.60;99.90
31133;DHT22;17779;50.942;4.026;2022-11-03T10:05:21;14.90;99.90
31133;DHT22;17779;50.942;4.026;2022-11-03T10:07:47;15.00;99.90
31133;DHT22;17779;50.942;4.026;2022-11-03T10:10:17;14.90;99.90
31133;DHT22;17779;50.942;4.026;2022-11-03T10:12:43;15.30;99.90
31133;DHT22;17779;50.942;4.026;2022-11-03T10:15:13;15.40;99.90
31133;DHT22;17779;50.942;4.026;2022-11-03T10:17:40;15.30;99.90
31133;DHT22;17779;50.942;4.026;2022-11-03T10:20:10;15.60;99.90
31133;DHT22;17779;50.942;4.026;2022-11-03T10:22:36;15.50;99.90
31133;DHT22;17779;50.942;4.026;2022-11-03T10:27:46;15.70;99.90
31133;DHT22;17779;50.942;4.026;2022-11-03T10:30:13;15.60;99.90
31133;DHT22;17779;50.942;4.026;2022-11-03T10:32:39;15.50;99.90
31133;DHT22;17779;50.942;4.026;2022-11-03T10:37:52;15.50;99.90
31133;DHT22;17779;50.942;4.026;2022-11-03T10:40:33;15.30;99.90
31133;DHT22;17779;50.942;4.026;2022-11-03T10:42:59;15.40;99.90
31133;DHT22;17779;50.942;4.026;2022-11-03T10:45:25;15.50;99.90
31133;DHT22;17779;50.942;4.026;2022-11-03T10:48:03;15.50;99.90
31133;DHT22;17779;50.942;4.026;2022-11-03T10:50:29;15.80;99.90
31133;DHT22;17779;50.942;4.026;2022-11-03T10:52:56;15.80;99.90
31133;DHT22;17779;50.942;4.026;2022-11-03T10:55:23;16.00;99.90
31133;DHT22;17779;50.942;4.026;2022-11-03T10:57:49;16.10;99.90
31133;DHT22;17779;50.942;4.026;2022-11-03T11:00:16;16.00;99.90
31133;DHT22;17779;50.942;4.026;2022-11-03T11:02:42;16.00;99.90
31133;DHT22;17779;50.942;4.026;2022-11-03T11:05:21;15.90;99.90
31133;DHT22;17779;50.942;4.026;2022-11-03T11:07:53;15.80;99.90
31133;DHT22;17779;50.942;4.026;2022-11-03T11:10:29;16.00;99.90
31133;DHT22;17779;50.942;4.026;2022-11-03T11:13:02;15.80;99.90
31133;DHT22;17779;50.942;4.026;2022-11-03T11:18:08;15.70;99.90
31133;DHT22;17779;50.942;4.026;2022-11-03T11:20:37;16.20;99.90
31133;DHT22;17779;50.942;4.026;2022-11-03T11:26:05;16.60;99.90
31133;DHT22;17779;50.942;4.026;2022-11-03T11:28:38;16.30;99.90
31133;DHT22;17779;50.942;4.026;2022-11-03T11:33:51;15.90;99.90
31133;DHT22;17779;50.942;4.026;2022-11-03T11:42:08;16.50;99.90
31133;DHT22;17779;50.942;4.026;2022-11-03T11:44:47;16.70;99.90
31133;DHT22;17779;50.942;4.026;2022-11-03T11:47:21;16.90;99.90
31133;DHT22;17779;50.942;4.026;2022-11-03T11:52:38;16.40;99.90
31133;DHT22;17779;50.942;4.026;2022-11-03T11:55:11;16.50;99.90
31133;DHT22;17779;50.942;4.026;2022-11-03T11:57:40;16.50;99.90
31133;DHT22;17779;50.942;4.026;2022-11-03T12:00:16;16.90;99.90
31133;DHT22;17779;50.942;4.026;2022-11-03T12:02:45;17.50;99.90
31133;DHT22;17779;50.942;4.026;2022-11-03T12:05:22;17.50;99.90
31133;DHT22;17779;50.942;4.026;2022-11-03T12:07:49;17.20;99.90
31133;DHT22;17779;50.942;4.026;2022-11-03T12:10:15;17.00;99.90
31133;DHT22;17779;50.942;4.026;2022-11-03T12:12:41;17.20;99.90
31133;DHT22;17779;50.942;4.026;2022-11-03T12:15:53;17.30;99.90
31133;DHT22;17779;50.942;4.026;2022-11-03T12:17:56;17.30;99.90
31133;DHT22;17779;50.942;4.026;2022-11-03T12:20:34;17.30;99.90
31133;DHT22;17779;50.942;4.026;2022-11-03T12:23:00;17.00;99.90
31133;DHT22;17779;50.942;4.026;2022-11-03T12:25:34;16.90;99.90
31133;DHT22;17779;50.942;4.026;2022-11-03T12:28:01;16.70;99.90
31133;DHT22;17779;50.942;4.026;2022-11-03T12:30:27;16.70;99.90
31133;DHT22;17779;50.942;4.026;2022-11-03T12:32:54;16.70;99.90
31133;DHT22;17779;50.942;4.026;2022-11-03T12:35:19;16.60;99.90
31133;DHT22;17779;50.942;4.026;2022-11-03T12:37:45;16.40;99.90
31133;DHT22;17779;50.942;4.026;2022-11-03T12:40:11;16.60;99.90
31133;DHT22;17779;50.942;4.026;2022-11-03T12:42:39;16.50;99.90
31133;DHT22;17779;50.942;4.026;2022-11-03T12:50:02;16.30;99.90
31133;DHT22;17779;50.942;4.026;2022-11-03T12:52:28;16.30;99.90
31133;DHT22;17779;50.942;4.026;2022-11-03T12:54:54;16.20;99.90
31133;DHT22;17779;50.942;4.026;2022-11-03T12:57:20;16.00;99.90
31133;DHT22;17779;50.942;4.026;2022-11-03T12:59:47;15.90;99.90
31133;DHT22;17779;50.942;4.026;2022-11-03T13:02:12;15.90;99.90
31133;DHT22;17779;50.942;4.026;2022-11-03T13:04:38;15.90;99.90
31133;DHT22;17779;50.942;4.026;2022-11-03T13:07:03;15.80;99.90
31133;DHT22;17779;50.942;4.026;2022-11-03T13:09:29;15.70;99.90
31133;DHT22;17779;50.942;4.026;2022-11-03T13:11:56;15.70;99.90
31133;DHT22;17779;50.942;4.026;2022-11-03T13:17:08;15.80;99.90
31133;DHT22;17779;50.942;4.026;2022-11-03T13:19:34;15.70;99.90
31133;DHT22;17779;50.942;4.026;2022-11-03T13:22:02;15.60;99.90
31133;DHT22;17779;50.942;4.026;2022-11-03T13:24:27;15.50;99.90
31133;DHT22;17779;50.942;4.026;2022-11-03T13:26:53;15.30;99.90
31133;DHT22;17779;50.942;4.026;2022-11-03T13:29:18;15.20;99.90
31133;DHT22;17779;50.942;4.026;2022-11-03T13:31:44;15.20;99.90
31133;DHT22;17779;50.942;4.026;2022-11-03T13:34:10;15.10;99.90
31133;DHT22;17779;50.942;4.026;2022-11-03T13:36:35;15.10;99.90
31133;DHT22;17779;50.942;4.026;2022-11-03T13:39:03;15.20;99.90
31133;DHT22;17779;50.942;4.026;2022-11-03T13:41:28;15.10;99.90
31133;DHT22;17779;50.942;4.026;2022-11-03T13:43:54;15.20;99.90
31133;DHT22;17779;50.942;4.026;2022-11-03T13:46:20;15.20;99.90
31133;DHT22;17779;50.942;4.026;2022-11-03T13:48:45;15.10;99.90
31133;DHT22;17779;50.942;4.026;2022-11-03T13:51:11;15.10;99.90
31133;DHT22;17779;50.942;4.026;2022-11-03T13:53:41;15.00;99.90
31133;DHT22;17779;50.942;4.026;2022-11-03T13:56:07;14.90;99.90
31133;DHT22;17779;50.942;4.026;2022-11-03T13:58:33;14.80;99.90
31133;DHT22;17779;50.942;4.026;2022-11-03T14:00:58;14.80;99.90
31133;DHT22;17779;50.942;4.026;2022-11-03T14:03:24;14.80;99.90
31133;DHT22;17779;50.942;4.026;2022-11-03T14:05:49;14.70;99.90
31133;DHT22;17779;50.942;4.026;2022-11-03T14:08:15;14.70;99.90
31133;DHT22;17779;50.942;4.026;2022-11-03T14:10:40;14.70;99.90
31133;DHT22;17779;50.942;4.026;2022-11-03T14:13:08;14.60;99.90
31133;DHT22;17779;50.942;4.026;2022-11-03T14:15:33;14.60;99.90
31133;DHT22;17779;50.942;4.026;2022-11-03T14:17:59;14.60;99.90
31133;DHT22;17779;50.942;4.026;2022-11-03T14:20:25;14.50;99.90
31133;DHT22;17779;50.942;4.026;2022-11-03T14:22:51;14.50;99.90
31133;DHT22;17779;50.942;4.026;2022-11-03T14:25:17;14.40;99.90
31133;DHT22;17779;50.942;4.026;2022-11-03T14:27:45;14.40;99.90
31133;DHT22;17779;50.942;4.026;2022-11-03T14:30:12;14.30;99.90
31133;DHT22;17779;50.942;4.026;2022-11-03T14:32:37;14.30;99.90
31133;DHT22;17779;50.942;4.026;2022-11-03T14:35:03;14.20;99.90
31133;DHT22;17779;50.942;4.026;2022-11-03T14:37:29;14.20;99.90
31133;DHT22;17779;50.942;4.026;2022-11-03T14:39:55;14.20;99.90
31133;DHT22;17779;50.942;4.026;2022-11-03T14:42:20;14.10;99.90
31133;DHT22;17779;50.942;4.026;2022-11-03T14:44:46;14.00;99.90
31133;DHT22;17779;50.942;4.026;2022-11-03T14:47:12;14.00;99.90
31133;DHT22;17779;50.942;4.026;2022-11-03T14:49:38;13.90;99.90
31133;DHT22;17779;50.942;4.026;2022-11-03T14:52:04;13.80;99.90
31133;DHT22;17779;50.942;4.026;2022-11-03T14:54:31;13.80;99.90
31133;DHT22;17779;50.942;4.026;2022-11-03T14:56:57;13.80;99.90
31133;DHT22;17779;50.942;4.026;2022-11-03T14:59:23;13.90;99.90
31133;DHT22;17779;50.942;4.026;2022-11-03T15:01:49;13.70;99.90
31133;DHT22;17779;50.942;4.026;2022-11-03T15:04:18;13.60;99.90
31133;DHT22;17779;50.942;4.026;2022-11-03T15:06:45;13.50;99.90
31133;DHT22;17779;50.942;4.026;2022-11-03T15:09:11;13.40;99.90
31133;DHT22;17779;50.942;4.026;2022-11-03T15:11:40;13.40;99.90
31133;DHT22;17779;50.942;4.026;2022-11-03T15:14:06;13.40;99.90
31133;DHT22;17779;50.942;4.026;2022-11-03T15:16:33;13.30;99.90
31133;DHT22;17779;50.942;4.026;2022-11-03T15:19:02;13.20;99.90
31133;DHT22;17779;50.942;4.026;2022-11-03T15:21:28;13.10;99.90
31133;DHT22;17779;50.942;4.026;2022-11-03T15:23:54;13.00;99.90
31133;DHT22;17779;50.942;4.026;2022-11-03T15:26:20;12.90;99.90
31133;DHT22;17779;50.942;4.026;2022-11-03T15:28:45;12.90;99.90
31133;DHT22;17779;50.942;4.026;2022-11-03T15:31:11;12.80;99.90
31133;DHT22;17779;50.942;4.026;2022-11-03T15:33:37;12.70;99.90
31133;DHT22;17779;50.942;4.026;2022-11-03T15:36:03;12.60;99.90
31133;DHT22;17779;50.942;4.026;2022-11-03T15:38:31;12.60;99.90
31133;DHT22;17779;50.942;4.026;2022-11-03T15:40:56;12.60;99.90
31133;DHT22;17779;50.942;4.026;2022-11-03T15:43:40;12.60;99.90
31133;DHT22;17779;50.942;4.026;2022-11-03T15:46:07;12.60;99.90
31133;DHT22;17779;50.942;4.026;2022-11-03T15:48:33;12.60;99.90
31133;DHT22;17779;50.942;4.026;2022-11-03T15:50:59;12.50;99.90
31133;DHT22;17779;50.942;4.026;2022-11-03T15:53:24;12.50;99.90
31133;DHT22;17779;50.942;4.026;2022-11-03T15:55:50;12.40;99.90
31133;DHT22;17779;50.942;4.026;2022-11-03T15:58:15;12.40;99.90
31133;DHT22;17779;50.942;4.026;2022-11-03T16:00:41;12.40;99.90
31133;DHT22;17779;50.942;4.026;2022-11-03T16:03:06;12.30;99.90
31133;DHT22;17779;50.942;4.026;2022-11-03T16:05:34;12.40;99.90
31133;DHT22;17779;50.942;4.026;2022-11-03T16:08:02;12.30;99.90
31133;DHT22;17779;50.942;4.026;2022-11-03T16:10:27;12.30;99.90
31133;DHT22;17779;50.942;4.026;2022-11-03T16:12:53;12.30;99.90
31133;DHT22;17779;50.942;4.026;2022-11-03T16:15:18;12.30;99.90
31133;DHT22;17779;50.942;4.026;2022-11-03T16:17:46;12.30;99.90
31133;DHT22;17779;50.942;4.026;2022-11-03T16:20:12;12.40;99.90
31133;DHT22;17779;50.942;4.026;2022-11-03T16:22:37;12.40;99.90
31133;DHT22;17779;50.942;4.026;2022-11-03T16:25:04;12.30;99.90
31133;DHT22;17779;50.942;4.026;2022-11-03T16:27:30;12.30;99.90
31133;DHT22;17779;50.942;4.026;2022-11-03T16:29:55;12.30;99.90
31133;DHT22;17779;50.942;4.026;2022-11-03T16:32:22;12.30;99.90
31133;DHT22;17779;50.942;4.026;2022-11-03T16:34:49;12.30;99.90
31133;DHT22;17779;50.942;4.026;2022-11-03T16:37:15;12.30;99.90